sensor_id;sensor_type;location;lat;lon;timestamp;pressure;altitude;pressure_sealevel;temperature;humidity
18201;BME280;9226;47.858;9.594;2022-12-29T00:00:03;95033.53;;;5.53;61.12
18201;BME280;9226;47.858;9.594;2022-12-29T00:02:29;95043.31;;;5.51;60.21
18201;BME280;9226;47.858;9.594;2022-12-29T00:04:54;95034.69;;;5.49;59.54
18201;BME280;9226;47.858;9.594;2022-12-29T00:07:20;95038.28;;;5.48;58.95
18201;BME280;9226;47.858;9.594;2022-12-29T00:09:45;95038.94;;;5.65;59.26
18201;BME280;9226;47.858;9.594;2022-12-29T00:12:11;95024.59;;;5.69;58.89
18201;BME280;9226;47.858;9.594;2022-12-29T00:14:36;95029.03;;;5.81;58.88
18201;BME280;9226;47.858;9.594;2022-12-29T00:17:20;95030.50;;;5.85;58.19
18201;BME280;9226;47.858;9.594;2022-12-29T00:19:45;95023.75;;;5.94;58.32
18201;BME280;9226;47.858;9.594;2022-12-29T00:22:29;95011.88;;;6.01;58.00
18201;BME280;9226;47.858;9.594;2022-12-29T00:25:13;95022.91;;;6.06;57.38
18201;BME280;9226;47.858;9.594;2022-12-29T00:27:57;95009.66;;;6.08;56.94
18201;BME280;9226;47.858;9.594;2022-12-29T00:30:42;95015.72;;;6.21;57.40
18201;BME280;9226;47.858;9.594;2022-12-29T00:33:29;95016.97;;;6.28;56.73
18201;BME280;9226;47.858;9.594;2022-12-29T00:38:46;95020.94;;;6.47;56.80
18201;BME280;9226;47.858;9.594;2022-12-29T00:41:30;95018.63;;;6.42;56.03
18201;BME280;9226;47.858;9.594;2022-12-29T00:44:14;95019.03;;;6.49;56.43
18201;BME280;9226;47.858;9.594;2022-12-29T00:46:41;95011.34;;;6.46;56.12
18201;BME280;9226;47.858;9.594;2022-12-29T00:49:10;95012.50;;;6.42;54.96
18201;BME280;9226;47.858;9.594;2022-12-29T00:51:59;95013.94;;;6.59;55.14
18201;BME280;9226;47.858;9.594;2022-12-29T00:54:25;95010.25;;;6.61;54.99
18201;BME280;9226;47.858;9.594;2022-12-29T00:56:51;95020.00;;;6.72;55.10
18201;BME280;9226;47.858;9.594;2022-12-29T00:59:18;95014.00;;;6.70;54.77
18201;BME280;9226;47.858;9.594;2022-12-29T01:01:44;95018.25;;;6.84;56.01
18201;BME280;9226;47.858;9.594;2022-12-29T01:04:10;95019.44;;;6.80;55.02
18201;BME280;9226;47.858;9.594;2022-12-29T01:06:38;95015.03;;;6.80;54.40
18201;BME280;9226;47.858;9.594;2022-12-29T01:09:04;95002.44;;;6.84;54.50
18201;BME280;9226;47.858;9.594;2022-12-29T01:11:48;95005.81;;;6.86;54.43
18201;BME280;9226;47.858;9.594;2022-12-29T01:14:14;95011.38;;;6.94;54.25
18201;BME280;9226;47.858;9.594;2022-12-29T01:16:39;95009.19;;;6.88;53.92
18201;BME280;9226;47.858;9.594;2022-12-29T01:19:05;95010.25;;;6.85;54.32
18201;BME280;9226;47.858;9.594;2022-12-29T01:21:32;95007.50;;;6.87;54.23
18201;BME280;9226;47.858;9.594;2022-12-29T01:23:57;95008.28;;;6.76;54.25
18201;BME280;9226;47.858;9.594;2022-12-29T01:26:23;95013.09;;;6.82;54.38
18201;BME280;9226;47.858;9.594;2022-12-29T01:28:48;95008.09;;;6.91;54.84
18201;BME280;9226;47.858;9.594;2022-12-29T01:31:14;95008.31;;;6.87;54.20
18201;BME280;9226;47.858;9.594;2022-12-29T01:33:41;95007.72;;;6.84;53.79
18201;BME280;9226;47.858;9.594;2022-12-29T01:36:12;95013.59;;;6.87;53.91
18201;BME280;9226;47.858;9.594;2022-12-29T01:38:38;95015.56;;;6.97;53.64
18201;BME280;9226;47.858;9.594;2022-12-29T01:41:05;95011.94;;;6.86;53.08
18201;BME280;9226;47.858;9.594;2022-12-29T01:48:41;95016.41;;;6.97;53.34
18201;BME280;9226;47.858;9.594;2022-12-29T01:51:07;95007.66;;;6.97;52.81
18201;BME280;9226;47.858;9.594;2022-12-29T01:53:33;95009.22;;;6.99;52.96
18201;BME280;9226;47.858;9.594;2022-12-29T01:56:02;95002.31;;;7.10;53.15
18201;BME280;9226;47.858;9.594;2022-12-29T01:58:34;95019.09;;;7.09;53.05
18201;BME280;9226;47.858;9.594;2022-12-29T02:01:02;95010.31;;;7.08;53.14
18201;BME280;9226;47.858;9.594;2022-12-29T02:03:28;95015.16;;;7.14;52.85
18201;BME280;9226;47.858;9.594;2022-12-29T02:06:05;95022.69;;;7.07;52.87
18201;BME280;9226;47.858;9.594;2022-12-29T02:08:33;95013.00;;;7.19;52.23
18201;BME280;9226;47.858;9.594;2022-12-29T02:11:00;95008.72;;;7.30;51.31
18201;BME280;9226;47.858;9.594;2022-12-29T02:13:26;95006.94;;;7.30;50.17
18201;BME280;9226;47.858;9.594;2022-12-29T02:26:56;95005.81;;;7.68;50.41
18201;BME280;9226;47.858;9.594;2022-12-29T02:29:40;95005.56;;;7.71;50.29
18201;BME280;9226;47.858;9.594;2022-12-29T02:35:07;95006.78;;;7.78;49.78
18201;BME280;9226;47.858;9.594;2022-12-29T02:40:39;95004.03;;;7.69;50.16
18201;BME280;9226;47.858;9.594;2022-12-29T02:45:59;94992.13;;;7.74;50.07
18201;BME280;9226;47.858;9.594;2022-12-29T02:48:41;95001.75;;;7.87;49.31
18201;BME280;9226;47.858;9.594;2022-12-29T02:54:06;94992.88;;;7.88;50.21
18201;BME280;9226;47.858;9.594;2022-12-29T02:56:50;94989.88;;;7.92;50.50
18201;BME280;9226;47.858;9.594;2022-12-29T02:59:15;94990.84;;;7.91;50.08
18201;BME280;9226;47.858;9.594;2022-12-29T03:01:55;94985.91;;;7.87;50.54
18201;BME280;9226;47.858;9.594;2022-12-29T03:12:59;94980.97;;;7.93;52.19
18201;BME280;9226;47.858;9.594;2022-12-29T03:15:53;94980.16;;;7.93;52.31
18201;BME280;9226;47.858;9.594;2022-12-29T03:18:47;94981.59;;;8.08;52.47
18201;BME280;9226;47.858;9.594;2022-12-29T03:23:49;94973.91;;;8.05;52.29
18201;BME280;9226;47.858;9.594;2022-12-29T03:26:16;94965.88;;;8.07;52.23
18201;BME280;9226;47.858;9.594;2022-12-29T03:28:52;94965.13;;;8.05;52.58
18201;BME280;9226;47.858;9.594;2022-12-29T03:31:19;94959.72;;;8.06;52.78
18201;BME280;9226;47.858;9.594;2022-12-29T03:33:48;94950.72;;;8.09;53.06
18201;BME280;9226;47.858;9.594;2022-12-29T03:36:31;94954.19;;;7.98;53.91
18201;BME280;9226;47.858;9.594;2022-12-29T03:39:03;94958.31;;;8.02;53.78
18201;BME280;9226;47.858;9.594;2022-12-29T03:41:34;94943.41;;;7.90;54.89
18201;BME280;9226;47.858;9.594;2022-12-29T03:44:00;94946.63;;;7.93;55.22
18201;BME280;9226;47.858;9.594;2022-12-29T03:46:25;94940.88;;;8.00;55.35
18201;BME280;9226;47.858;9.594;2022-12-29T03:48:51;94939.19;;;8.10;55.48
18201;BME280;9226;47.858;9.594;2022-12-29T03:51:16;94941.34;;;8.05;56.18
18201;BME280;9226;47.858;9.594;2022-12-29T03:53:41;94932.00;;;8.01;56.18
18201;BME280;9226;47.858;9.594;2022-12-29T03:56:07;94943.16;;;7.93;56.52
18201;BME280;9226;47.858;9.594;2022-12-29T03:58:32;94929.34;;;8.01;56.34
18201;BME280;9226;47.858;9.594;2022-12-29T04:00:57;94941.00;;;7.98;56.44
18201;BME280;9226;47.858;9.594;2022-12-29T04:03:23;94938.97;;;7.90;56.95
18201;BME280;9226;47.858;9.594;2022-12-29T04:05:48;94941.00;;;7.98;57.05
18201;BME280;9226;47.858;9.594;2022-12-29T04:08:15;94939.94;;;8.01;57.13
18201;BME280;9226;47.858;9.594;2022-12-29T04:10:40;94937.28;;;8.01;57.40
18201;BME280;9226;47.858;9.594;2022-12-29T04:13:06;94935.47;;;8.01;57.65
18201;BME280;9226;47.858;9.594;2022-12-29T04:15:31;94935.97;;;7.95;58.16
18201;BME280;9226;47.858;9.594;2022-12-29T04:17:57;94932.94;;;8.00;58.07
18201;BME280;9226;47.858;9.594;2022-12-29T04:20:22;94941.25;;;7.95;58.52
18201;BME280;9226;47.858;9.594;2022-12-29T04:23:07;94944.88;;;7.94;58.65
18201;BME280;9226;47.858;9.594;2022-12-29T04:25:33;94937.88;;;7.93;58.37
18201;BME280;9226;47.858;9.594;2022-12-29T04:27:59;94932.38;;;7.96;58.60
18201;BME280;9226;47.858;9.594;2022-12-29T04:30:24;94930.31;;;8.00;58.63
18201;BME280;9226;47.858;9.594;2022-12-29T04:32:50;94939.19;;;8.10;58.48
18201;BME280;9226;47.858;9.594;2022-12-29T04:35:15;94946.38;;;8.08;58.87
18201;BME280;9226;47.858;9.594;2022-12-29T04:37:40;94947.00;;;8.11;58.52
18201;BME280;9226;47.858;9.594;2022-12-29T04:40:06;94941.34;;;8.16;58.32
18201;BME280;9226;47.858;9.594;2022-12-29T04:42:32;94928.25;;;8.26;58.27
18201;BME280;9226;47.858;9.594;2022-12-29T04:44:57;94929.66;;;8.30;58.26
18201;BME280;9226;47.858;9.594;2022-12-29T04:47:23;94926.78;;;8.33;58.17
18201;BME280;9226;47.858;9.594;2022-12-29T04:49:48;94929.78;;;8.40;58.13
18201;BME280;9226;47.858;9.594;2022-12-29T04:52:13;94920.78;;;8.31;58.60
18201;BME280;9226;47.858;9.594;2022-12-29T04:54:39;94915.50;;;8.31;58.74
18201;BME280;9226;47.858;9.594;2022-12-29T04:57:05;94916.44;;;8.41;58.63
18201;BME280;9226;47.858;9.594;2022-12-29T04:59:30;94910.91;;;8.33;58.96
18201;BME280;9226;47.858;9.594;2022-12-29T05:01:55;94914.78;;;8.29;59.26
18201;BME280;9226;47.858;9.594;2022-12-29T05:04:21;94913.06;;;8.39;59.40
18201;BME280;9226;47.858;9.594;2022-12-29T05:06:47;94901.91;;;8.36;59.06
18201;BME280;9226;47.858;9.594;2022-12-29T05:09:12;94919.31;;;8.49;58.67
18201;BME280;9226;47.858;9.594;2022-12-29T05:11:38;94911.09;;;8.64;57.75
18201;BME280;9226;47.858;9.594;2022-12-29T05:14:03;94910.59;;;8.70;57.51
18201;BME280;9226;47.858;9.594;2022-12-29T05:16:28;94902.19;;;8.65;57.51
18201;BME280;9226;47.858;9.594;2022-12-29T05:18:54;94905.44;;;8.68;57.48
18201;BME280;9226;47.858;9.594;2022-12-29T05:21:19;94912.94;;;8.52;57.65
18201;BME280;9226;47.858;9.594;2022-12-29T05:23:44;94914.81;;;8.61;57.44
18201;BME280;9226;47.858;9.594;2022-12-29T05:26:10;94908.22;;;8.67;57.04
18201;BME280;9226;47.858;9.594;2022-12-29T05:28:35;94909.41;;;8.63;57.28
18201;BME280;9226;47.858;9.594;2022-12-29T05:31:01;94903.16;;;8.64;57.52
18201;BME280;9226;47.858;9.594;2022-12-29T05:33:26;94906.06;;;8.61;57.38
18201;BME280;9226;47.858;9.594;2022-12-29T05:35:51;94906.38;;;8.67;57.31
18201;BME280;9226;47.858;9.594;2022-12-29T05:38:17;94910.00;;;8.66;57.36
18201;BME280;9226;47.858;9.594;2022-12-29T05:40:43;94913.25;;;8.70;57.06
18201;BME280;9226;47.858;9.594;2022-12-29T05:43:09;94922.22;;;8.79;56.55
18201;BME280;9226;47.858;9.594;2022-12-29T05:45:35;94921.50;;;8.77;56.18
18201;BME280;9226;47.858;9.594;2022-12-29T05:48:01;94917.16;;;8.76;55.44
18201;BME280;9226;47.858;9.594;2022-12-29T05:50:26;94909.84;;;8.79;55.33
18201;BME280;9226;47.858;9.594;2022-12-29T05:52:52;94923.19;;;8.78;55.30
18201;BME280;9226;47.858;9.594;2022-12-29T05:55:17;94918.47;;;8.81;54.70
18201;BME280;9226;47.858;9.594;2022-12-29T05:57:42;94915.13;;;8.79;54.84
18201;BME280;9226;47.858;9.594;2022-12-29T06:00:08;94916.47;;;8.74;54.73
18201;BME280;9226;47.858;9.594;2022-12-29T06:02:34;94928.38;;;8.68;54.28
18201;BME280;9226;47.858;9.594;2022-12-29T06:04:59;94934.28;;;8.72;53.78
18201;BME280;9226;47.858;9.594;2022-12-29T06:07:25;94939.66;;;8.81;53.99
18201;BME280;9226;47.858;9.594;2022-12-29T06:09:50;94939.91;;;8.78;54.28
18201;BME280;9226;47.858;9.594;2022-12-29T06:12:15;94947.81;;;8.78;54.23
18201;BME280;9226;47.858;9.594;2022-12-29T06:14:41;94958.94;;;8.61;54.29
18201;BME280;9226;47.858;9.594;2022-12-29T06:17:07;94947.75;;;8.68;54.33
18201;BME280;9226;47.858;9.594;2022-12-29T06:19:32;94965.94;;;8.62;54.08
18201;BME280;9226;47.858;9.594;2022-12-29T06:21:58;94958.94;;;8.61;54.23
18201;BME280;9226;47.858;9.594;2022-12-29T06:24:23;94960.88;;;8.59;54.12
18201;BME280;9226;47.858;9.594;2022-12-29T06:26:48;94968.81;;;8.47;54.20
18201;BME280;9226;47.858;9.594;2022-12-29T06:29:14;94961.88;;;8.46;54.18
18201;BME280;9226;47.858;9.594;2022-12-29T06:31:44;94969.06;;;8.44;54.23
18201;BME280;9226;47.858;9.594;2022-12-29T06:34:11;94966.91;;;8.49;53.85
18201;BME280;9226;47.858;9.594;2022-12-29T06:36:37;94968.44;;;8.52;54.59
18201;BME280;9226;47.858;9.594;2022-12-29T06:39:02;94968.56;;;8.50;54.60
18201;BME280;9226;47.858;9.594;2022-12-29T06:41:28;94976.63;;;8.49;54.57
18201;BME280;9226;47.858;9.594;2022-12-29T06:43:53;94973.63;;;8.42;55.16
18201;BME280;9226;47.858;9.594;2022-12-29T06:46:19;94969.44;;;8.51;55.06
18201;BME280;9226;47.858;9.594;2022-12-29T06:48:44;94970.03;;;8.55;54.96
18201;BME280;9226;47.858;9.594;2022-12-29T06:51:09;94965.19;;;8.60;54.92
18201;BME280;9226;47.858;9.594;2022-12-29T06:53:35;94959.19;;;8.58;55.05
18201;BME280;9226;47.858;9.594;2022-12-29T06:56:00;94956.88;;;8.64;55.37
18201;BME280;9226;47.858;9.594;2022-12-29T06:58:25;94958.66;;;8.75;54.92
18201;BME280;9226;47.858;9.594;2022-12-29T07:00:51;94959.88;;;8.71;54.97
18201;BME280;9226;47.858;9.594;2022-12-29T07:03:16;94950.47;;;8.78;54.82
18201;BME280;9226;47.858;9.594;2022-12-29T07:05:42;94965.63;;;8.76;54.99
18201;BME280;9226;47.858;9.594;2022-12-29T07:08:07;94963.44;;;8.81;55.05
18201;BME280;9226;47.858;9.594;2022-12-29T07:10:33;94973.06;;;8.82;54.83
18201;BME280;9226;47.858;9.594;2022-12-29T07:12:58;94967.50;;;8.97;54.96
18201;BME280;9226;47.858;9.594;2022-12-29T07:15:23;94974.13;;;8.91;55.09
18201;BME280;9226;47.858;9.594;2022-12-29T07:17:49;94984.06;;;8.99;55.17
18201;BME280;9226;47.858;9.594;2022-12-29T07:20:15;94981.41;;;8.99;55.40
18201;BME280;9226;47.858;9.594;2022-12-29T07:22:41;94980.22;;;9.03;55.24
18201;BME280;9226;47.858;9.594;2022-12-29T07:25:06;94973.81;;;9.05;55.70
18201;BME280;9226;47.858;9.594;2022-12-29T07:27:32;94979.44;;;9.12;55.88
18201;BME280;9226;47.858;9.594;2022-12-29T07:29:57;94977.44;;;9.04;56.05
18201;BME280;9226;47.858;9.594;2022-12-29T07:32:23;94985.84;;;9.10;56.08
18201;BME280;9226;47.858;9.594;2022-12-29T07:34:48;94988.09;;;9.14;56.06
18201;BME280;9226;47.858;9.594;2022-12-29T07:37:17;94997.94;;;9.12;56.47
18201;BME280;9226;47.858;9.594;2022-12-29T07:39:43;94979.53;;;9.22;56.45
18201;BME280;9226;47.858;9.594;2022-12-29T07:42:08;94981.19;;;9.23;56.34
18201;BME280;9226;47.858;9.594;2022-12-29T07:44:34;94976.50;;;9.27;56.61
18201;BME280;9226;47.858;9.594;2022-12-29T07:46:59;94973.53;;;9.41;56.23
18201;BME280;9226;47.858;9.594;2022-12-29T07:49:25;94978.22;;;9.37;56.50
18201;BME280;9226;47.858;9.594;2022-12-29T07:51:50;94977.84;;;9.21;57.15
18201;BME280;9226;47.858;9.594;2022-12-29T07:54:16;94978.44;;;9.46;56.59
18201;BME280;9226;47.858;9.594;2022-12-29T07:56:43;94985.66;;;9.44;56.77
18201;BME280;9226;47.858;9.594;2022-12-29T07:59:09;94986.97;;;9.49;56.58
18201;BME280;9226;47.858;9.594;2022-12-29T08:01:34;95002.84;;;9.49;56.82
18201;BME280;9226;47.858;9.594;2022-12-29T08:04:00;94992.81;;;9.53;56.95
18201;BME280;9226;47.858;9.594;2022-12-29T08:06:25;94995.34;;;9.54;57.06
18201;BME280;9226;47.858;9.594;2022-12-29T08:08:50;95011.38;;;9.53;57.22
18201;BME280;9226;47.858;9.594;2022-12-29T08:11:16;95001.94;;;9.60;56.65
18201;BME280;9226;47.858;9.594;2022-12-29T08:13:41;95009.81;;;9.50;55.90
18201;BME280;9226;47.858;9.594;2022-12-29T08:16:07;95014.91;;;9.42;55.54
18201;BME280;9226;47.858;9.594;2022-12-29T08:18:32;95008.59;;;9.54;55.17
18201;BME280;9226;47.858;9.594;2022-12-29T08:21:02;95016.97;;;9.38;55.01
18201;BME280;9226;47.858;9.594;2022-12-29T08:23:28;95018.66;;;9.39;55.02
18201;BME280;9226;47.858;9.594;2022-12-29T08:25:58;95013.13;;;9.43;54.55
18201;BME280;9226;47.858;9.594;2022-12-29T08:28:23;95022.78;;;9.32;53.96
18201;BME280;9226;47.858;9.594;2022-12-29T08:30:48;95013.28;;;9.30;53.67
18201;BME280;9226;47.858;9.594;2022-12-29T08:33:14;95022.13;;;9.19;53.48
18201;BME280;9226;47.858;9.594;2022-12-29T08:35:39;95024.53;;;9.22;53.82
18201;BME280;9226;47.858;9.594;2022-12-29T08:38:04;95032.22;;;9.14;53.61
18201;BME280;9226;47.858;9.594;2022-12-29T08:40:30;95021.28;;;9.18;53.44
18201;BME280;9226;47.858;9.594;2022-12-29T08:42:55;95014.94;;;9.10;53.33
18201;BME280;9226;47.858;9.594;2022-12-29T08:45:20;95024.66;;;9.09;53.53
18201;BME280;9226;47.858;9.594;2022-12-29T08:47:46;95021.66;;;9.14;53.28
18201;BME280;9226;47.858;9.594;2022-12-29T08:50:11;95021.28;;;9.18;52.38
18201;BME280;9226;47.858;9.594;2022-12-29T08:52:37;95028.56;;;9.05;52.31
18201;BME280;9226;47.858;9.594;2022-12-29T08:55:02;95017.47;;;9.11;52.13
18201;BME280;9226;47.858;9.594;2022-12-29T08:57:28;95015.66;;;9.12;51.55
18201;BME280;9226;47.858;9.594;2022-12-29T08:59:53;95029.00;;;9.10;51.15
18201;BME280;9226;47.858;9.594;2022-12-29T09:02:18;95030.69;;;9.11;50.85
18201;BME280;9226;47.858;9.594;2022-12-29T09:04:44;95027.41;;;9.19;50.84
18201;BME280;9226;47.858;9.594;2022-12-29T09:07:10;95024.59;;;9.32;50.52
18201;BME280;9226;47.858;9.594;2022-12-29T09:09:35;95032.47;;;9.43;50.15
18201;BME280;9226;47.858;9.594;2022-12-29T09:12:01;95039.50;;;9.33;49.89
18201;BME280;9226;47.858;9.594;2022-12-29T09:14:26;95037.19;;;9.39;49.94
18201;BME280;9226;47.858;9.594;2022-12-29T09:16:53;95033.44;;;9.42;49.55
18201;BME280;9226;47.858;9.594;2022-12-29T09:19:37;95046.63;;;9.53;49.54
18201;BME280;9226;47.858;9.594;2022-12-29T09:22:02;95047.34;;;9.55;48.58
18201;BME280;9226;47.858;9.594;2022-12-29T09:24:28;95047.28;;;9.67;48.70
18201;BME280;9226;47.858;9.594;2022-12-29T09:26:53;95045.16;;;9.60;47.81
18201;BME280;9226;47.858;9.594;2022-12-29T09:29:19;95044.13;;;9.73;47.92
18201;BME280;9226;47.858;9.594;2022-12-29T09:31:44;95052.66;;;9.76;47.71
18201;BME280;9226;47.858;9.594;2022-12-29T09:34:09;95048.84;;;9.90;47.56
18201;BME280;9226;47.858;9.594;2022-12-29T09:36:35;95046.88;;;9.92;47.68
18201;BME280;9226;47.858;9.594;2022-12-29T09:39:00;95046.97;;;10.12;47.81
18201;BME280;9226;47.858;9.594;2022-12-29T09:42:27;95049.50;;;10.13;46.96
18201;BME280;9226;47.858;9.594;2022-12-29T09:47:19;95049.47;;;10.65;47.50
18201;BME280;9226;47.858;9.594;2022-12-29T09:52:31;95044.38;;;10.93;46.82
18201;BME280;9226;47.858;9.594;2022-12-29T09:55:22;95037.84;;;11.07;46.92
18201;BME280;9226;47.858;9.594;2022-12-29T09:58:05;95038.69;;;11.08;46.62
18201;BME280;9226;47.858;9.594;2022-12-29T10:00:43;95024.16;;;11.12;46.69
18201;BME280;9226;47.858;9.594;2022-12-29T10:03:18;95014.66;;;11.29;46.08
18201;BME280;9226;47.858;9.594;2022-12-29T10:25:17;95002.22;;;12.16;44.28
18201;BME280;9226;47.858;9.594;2022-12-29T10:27:47;94996.88;;;12.35;43.83
18201;BME280;9226;47.858;9.594;2022-12-29T10:30:13;95000.03;;;12.66;44.18
18201;BME280;9226;47.858;9.594;2022-12-29T10:32:44;94987.97;;;12.72;43.17
18201;BME280;9226;47.858;9.594;2022-12-29T10:35:21;94994.88;;;12.93;42.94
18201;BME280;9226;47.858;9.594;2022-12-29T10:37:53;94988.25;;;12.97;43.01
18201;BME280;9226;47.858;9.594;2022-12-29T10:43:42;94971.28;;;12.98;42.12
18201;BME280;9226;47.858;9.594;2022-12-29T10:46:15;94968.00;;;12.86;41.70
18201;BME280;9226;47.858;9.594;2022-12-29T10:48:43;94963.88;;;12.92;41.88
18201;BME280;9226;47.858;9.594;2022-12-29T10:51:26;94962.91;;;12.93;41.04
18201;BME280;9226;47.858;9.594;2022-12-29T10:56:42;94960.31;;;13.01;40.89
18201;BME280;9226;47.858;9.594;2022-12-29T10:59:26;94966.34;;;13.21;41.29
18201;BME280;9226;47.858;9.594;2022-12-29T11:05:00;94971.31;;;13.34;41.03
18201;BME280;9226;47.858;9.594;2022-12-29T11:07:30;94950.44;;;13.11;39.61
18201;BME280;9226;47.858;9.594;2022-12-29T11:10:16;94951.81;;;12.97;40.05
18201;BME280;9226;47.858;9.594;2022-12-29T11:12:55;94959.34;;;13.02;40.61
18201;BME280;9226;47.858;9.594;2022-12-29T11:15:20;94973.09;;;12.79;40.07
18201;BME280;9226;47.858;9.594;2022-12-29T11:20:38;94955.66;;;12.67;40.61
18201;BME280;9226;47.858;9.594;2022-12-29T11:23:21;94960.09;;;12.76;40.87
18201;BME280;9226;47.858;9.594;2022-12-29T11:26:20;94959.69;;;12.71;40.86
18201;BME280;9226;47.858;9.594;2022-12-29T11:31:49;94963.50;;;12.87;41.28
18201;BME280;9226;47.858;9.594;2022-12-29T11:34:26;94958.25;;;12.95;41.87
18201;BME280;9226;47.858;9.594;2022-12-29T11:36:57;94953.69;;;12.87;42.70
18201;BME280;9226;47.858;9.594;2022-12-29T11:39:56;94964.31;;;12.69;42.53
18201;BME280;9226;47.858;9.594;2022-12-29T11:42:37;94965.78;;;12.81;43.22
18201;BME280;9226;47.858;9.594;2022-12-29T11:45:13;94959.09;;;12.77;43.71
18201;BME280;9226;47.858;9.594;2022-12-29T11:47:42;94961.69;;;12.87;43.94
18201;BME280;9226;47.858;9.594;2022-12-29T11:50:26;94949.75;;;12.73;44.92
18201;BME280;9226;47.858;9.594;2022-12-29T11:53:06;94950.19;;;12.87;45.61
18201;BME280;9226;47.858;9.594;2022-12-29T11:55:36;94947.16;;;12.99;45.68
18201;BME280;9226;47.858;9.594;2022-12-29T11:58:03;94941.31;;;12.96;45.95
18201;BME280;9226;47.858;9.594;2022-12-29T12:00:33;94946.78;;;13.12;46.09
18201;BME280;9226;47.858;9.594;2022-12-29T12:03:07;94951.19;;;13.21;46.34
18201;BME280;9226;47.858;9.594;2022-12-29T12:05:44;94947.03;;;13.19;46.52
18201;BME280;9226;47.858;9.594;2022-12-29T12:08:17;94946.56;;;13.24;46.81
18201;BME280;9226;47.858;9.594;2022-12-29T12:10:52;94933.25;;;13.24;46.41
18201;BME280;9226;47.858;9.594;2022-12-29T12:13:43;94927.38;;;13.20;46.83
18201;BME280;9226;47.858;9.594;2022-12-29T12:16:16;94932.19;;;13.16;47.40
18201;BME280;9226;47.858;9.594;2022-12-29T12:18:53;94921.53;;;13.16;47.30
18201;BME280;9226;47.858;9.594;2022-12-29T12:21:30;94917.63;;;13.11;47.83
18201;BME280;9226;47.858;9.594;2022-12-29T12:24:11;94924.34;;;13.15;47.53
18201;BME280;9226;47.858;9.594;2022-12-29T12:29:50;94910.94;;;13.25;47.80
18201;BME280;9226;47.858;9.594;2022-12-29T12:32:30;94922.81;;;13.30;47.66
18201;BME280;9226;47.858;9.594;2022-12-29T12:34:59;94922.34;;;13.17;48.42
18201;BME280;9226;47.858;9.594;2022-12-29T12:57:38;94910.50;;;12.75;49.92
18201;BME280;9226;47.858;9.594;2022-12-29T13:00:11;94905.78;;;12.69;50.39
18201;BME280;9226;47.858;9.594;2022-12-29T13:02:56;94904.00;;;12.60;50.96
18201;BME280;9226;47.858;9.594;2022-12-29T13:21:32;94898.13;;;12.10;52.37
18201;BME280;9226;47.858;9.594;2022-12-29T13:24:02;94901.97;;;12.26;52.25
18201;BME280;9226;47.858;9.594;2022-12-29T13:26:43;94897.56;;;12.17;52.90
18201;BME280;9226;47.858;9.594;2022-12-29T13:37:04;94892.13;;;12.08;52.90
18201;BME280;9226;47.858;9.594;2022-12-29T13:39:50;94894.84;;;11.99;53.40
18201;BME280;9226;47.858;9.594;2022-12-29T13:42:18;94885.34;;;11.96;53.61
18201;BME280;9226;47.858;9.594;2022-12-29T13:44:52;94897.19;;;12.02;53.52
18201;BME280;9226;47.858;9.594;2022-12-29T13:47:36;94887.25;;;12.04;53.54
18201;BME280;9226;47.858;9.594;2022-12-29T13:50:05;94890.75;;;12.04;53.84
18201;BME280;9226;47.858;9.594;2022-12-29T13:55:32;94893.31;;;11.96;54.11
18201;BME280;9226;47.858;9.594;2022-12-29T14:00:45;94897.22;;;11.92;54.59
18201;BME280;9226;47.858;9.594;2022-12-29T14:08:36;94888.16;;;11.85;54.47
18201;BME280;9226;47.858;9.594;2022-12-29T14:11:09;94897.09;;;11.93;54.04
18201;BME280;9226;47.858;9.594;2022-12-29T14:13:38;94896.66;;;11.88;54.24
18201;BME280;9226;47.858;9.594;2022-12-29T14:16:05;94896.41;;;11.82;54.02
18201;BME280;9226;47.858;9.594;2022-12-29T14:18:33;94895.41;;;11.83;54.24
18201;BME280;9226;47.858;9.594;2022-12-29T14:21:08;94893.66;;;11.73;54.37
18201;BME280;9226;47.858;9.594;2022-12-29T14:23:42;94891.41;;;11.79;54.24
18201;BME280;9226;47.858;9.594;2022-12-29T14:28:54;94899.06;;;11.82;54.02
18201;BME280;9226;47.858;9.594;2022-12-29T14:36:51;94896.94;;;11.85;54.00
18201;BME280;9226;47.858;9.594;2022-12-29T14:39:44;94890.84;;;11.75;54.48
18201;BME280;9226;47.858;9.594;2022-12-29T14:44:51;94890.13;;;11.73;54.32
18201;BME280;9226;47.858;9.594;2022-12-29T14:47:33;94888.88;;;11.77;54.37
18201;BME280;9226;47.858;9.594;2022-12-29T14:50:12;94882.06;;;11.65;54.61
18201;BME280;9226;47.858;9.594;2022-12-29T14:52:59;94889.88;;;11.66;54.80
18201;BME280;9226;47.858;9.594;2022-12-29T14:58:15;94879.88;;;11.50;55.21
18201;BME280;9226;47.858;9.594;2022-12-29T15:00:42;94884.91;;;11.53;55.11
18201;BME280;9226;47.858;9.594;2022-12-29T15:04:03;94899.16;;;11.52;55.15
18201;BME280;9226;47.858;9.594;2022-12-29T15:06:28;94900.81;;;11.63;54.96
18201;BME280;9226;47.858;9.594;2022-12-29T15:09:06;94894.56;;;11.45;55.72
18201;BME280;9226;47.858;9.594;2022-12-29T15:16:52;94896.38;;;11.44;55.84
18201;BME280;9226;47.858;9.594;2022-12-29T15:19:25;94891.63;;;11.48;56.05
18201;BME280;9226;47.858;9.594;2022-12-29T15:21:52;94889.66;;;11.40;56.63
18201;BME280;9226;47.858;9.594;2022-12-29T15:24:18;94888.84;;;11.39;57.12
18201;BME280;9226;47.858;9.594;2022-12-29T15:26:46;94901.16;;;11.40;57.04
18201;BME280;9226;47.858;9.594;2022-12-29T15:29:48;94899.78;;;11.27;57.94
18201;BME280;9226;47.858;9.594;2022-12-29T15:32:22;94901.16;;;11.21;58.20
18201;BME280;9226;47.858;9.594;2022-12-29T15:34:53;94909.84;;;11.23;58.12
18201;BME280;9226;47.858;9.594;2022-12-29T15:37:24;94902.56;;;11.25;58.19
18201;BME280;9226;47.858;9.594;2022-12-29T15:39:51;94903.69;;;11.22;58.48
18201;BME280;9226;47.858;9.594;2022-12-29T15:42:52;94898.50;;;11.21;58.63
18201;BME280;9226;47.858;9.594;2022-12-29T15:45:25;94903.00;;;11.11;59.34
18201;BME280;9226;47.858;9.594;2022-12-29T15:47:55;94905.13;;;11.07;59.49
18201;BME280;9226;47.858;9.594;2022-12-29T15:50:25;94903.84;;;11.01;59.77
18201;BME280;9226;47.858;9.594;2022-12-29T15:52:52;94900.09;;;11.04;59.35
18201;BME280;9226;47.858;9.594;2022-12-29T15:55:27;94905.97;;;10.88;60.11
18201;BME280;9226;47.858;9.594;2022-12-29T15:57:58;94898.41;;;10.83;60.35
18201;BME280;9226;47.858;9.594;2022-12-29T16:00:33;94904.28;;;10.87;59.93
18201;BME280;9226;47.858;9.594;2022-12-29T16:03:03;94909.44;;;10.98;59.44
18201;BME280;9226;47.858;9.594;2022-12-29T16:05:37;94910.13;;;10.81;60.54
18201;BME280;9226;47.858;9.594;2022-12-29T16:08:22;94920.75;;;10.81;60.61
18201;BME280;9226;47.858;9.594;2022-12-29T16:10:47;94928.03;;;10.89;60.13